Time;durP1;ratioP1;P1;durP2;ratioP2;P2;SDS_P1;SDS_P2;PMS_P1;PMS_P2;Temp;Humidity;BMP_temperature;BMP_pressure;BME280_temperature;BME280_humidity;BME280_pressure;Samples;Min_cycle;Max_cycle;Signal;HPM_P1;HPM_P2
2023/07/15 00:01:34;;;;;;;3.88;2.22;;;22.70;95.50;;;;;;5045388;28;20488;-42
2023/07/15 00:03:59;;;;;;;3.05;1.75;;;22.80;95.50;;;;;;5044299;28;20021;-42
2023/07/15 00:06:26;;;;;;;4.32;2.05;;;22.70;95.50;;;;;;5045227;28;20017;-42
2023/07/15 00:08:58;;;;;;;3.38;2.03;;;22.70;95.40;;;;;;5045169;28;20045;-42
2023/07/15 00:11:31;;;;;;;2.58;1.60;;;22.70;95.40;;;;;;5044834;28;20029;-41
2023/07/15 00:13:58;;;;;;;3.38;2.05;;;22.70;95.30;;;;;;5035090;28;20029;-43
2023/07/15 00:16:24;;;;;;;3.92;1.90;;;22.70;95.20;;;;;;5045279;28;20116;-42
2023/07/15 00:18:50;;;;;;;4.28;2.00;;;22.70;95.10;;;;;;5045023;28;20033;-42
2023/07/15 00:21:22;;;;;;;2.08;1.80;;;22.70;95.00;;;;;;5044988;28;20028;-42
2023/07/15 00:23:55;;;;;;;3.33;1.80;;;22.70;95.00;;;;;;5039931;28;20442;-42
2023/07/15 00:26:26;;;;;;;4.43;1.90;;;22.70;94.90;;;;;;5045221;28;20025;-42
2023/07/15 00:28:52;;;;;;;4.22;1.80;;;22.60;94.80;;;;;;5044323;28;20758;-42
2023/07/15 00:31:19;;;;;;;3.75;1.98;;;22.60;94.70;;;;;;5044288;28;20103;-41
2023/07/15 00:33:45;;;;;;;4.45;1.95;;;22.60;94.60;;;;;;5044723;28;20017;-41
2023/07/15 00:36:12;;;;;;;5.00;1.73;;;22.60;94.40;;;;;;5044856;28;20036;-42
2023/07/15 00:38:42;;;;;;;3.20;1.80;;;22.60;94.30;;;;;;5043744;28;20037;-42
2023/07/15 00:41:29;;;;;;;3.08;1.63;;;22.50;94.10;;;;;;5044144;28;20117;-41
2023/07/15 00:44:01;;;;;;;2.33;1.80;;;22.50;94.10;;;;;;5044428;28;20025;-42
2023/07/15 00:46:42;;;;;;;1.90;1.70;;;22.50;94.00;;;;;;5044451;28;20033;-42
2023/07/15 00:49:21;;;;;;;2.20;1.70;;;22.50;93.90;;;;;;5044088;28;20178;-42
2023/07/15 00:52:20;;;;;;;2.13;1.67;;;22.50;93.80;;;;;;5043880;28;20045;-42
2023/07/15 00:54:54;;;;;;;2.05;1.40;;;22.50;93.80;;;;;;5032001;28;20488;-42
2023/07/15 00:57:21;;;;;;;3.97;1.63;;;22.50;93.80;;;;;;5044665;28;20036;-41
2023/07/15 00:59:48;;;;;;;3.47;1.77;;;22.50;93.80;;;;;;5044253;28;20017;-41
2023/07/15 01:02:15;;;;;;;2.70;1.73;;;22.50;93.70;;;;;;5045459;28;20053;-41
2023/07/15 01:04:41;;;;;;;2.20;1.52;;;22.50;93.70;;;;;;5044940;28;20021;-42
2023/07/15 01:07:07;;;;;;;2.97;1.52;;;22.60;93.60;;;;;;5043495;28;20052;-42
2023/07/15 01:09:34;;;;;;;3.97;1.70;;;22.60;93.50;;;;;;5044603;28;20033;-42
2023/07/15 01:12:02;;;;;;;2.22;1.58;;;22.60;93.40;;;;;;5044301;28;20075;-42
2023/07/15 01:14:28;;;;;;;2.33;1.27;;;22.60;93.40;;;;;;5043745;28;20143;-41
2023/07/15 01:16:54;;;;;;;2.78;1.67;;;22.60;93.30;;;;;;5044390;28;20108;-42
2023/07/15 01:19:20;;;;;;;1.85;1.60;;;22.60;93.20;;;;;;5044178;28;20025;-42
2023/07/15 01:21:50;;;;;;;2.13;1.65;;;22.70;93.10;;;;;;5043581;28;20017;-42
2023/07/15 01:24:26;;;;;;;2.33;1.50;;;22.70;92.70;;;;;;5044369;28;20029;-42
2023/07/15 01:27:08;;;;;;;2.20;1.67;;;22.80;92.60;;;;;;5043381;28;20025;-42
2023/07/15 01:29:33;;;;;;;1.45;1.33;;;22.80;92.20;;;;;;5043749;28;20051;-41
2023/07/15 01:31:59;;;;;;;2.00;1.42;;;22.90;92.00;;;;;;5044034;28;20029;-42
2023/07/15 01:34:30;;;;;;;2.05;1.45;;;23.00;91.70;;;;;;5043805;28;20477;-42
2023/07/15 01:36:56;;;;;;;1.65;1.40;;;23.10;91.60;;;;;;5047262;28;20597;-42
2023/07/15 01:39:22;;;;;;;4.03;1.58;;;23.20;91.40;;;;;;5047750;28;20029;-42
2023/07/15 01:41:47;;;;;;;1.58;1.25;;;23.30;91.20;;;;;;5046588;28;20025;-41
2023/07/15 01:44:14;;;;;;;2.13;1.40;;;23.40;91.20;;;;;;5047901;28;20025;-41
2023/07/15 01:46:40;;;;;;;1.30;1.20;;;23.40;91.00;;;;;;5047450;28;20110;-41
2023/07/15 01:49:07;;;;;;;3.67;1.65;;;23.50;91.00;;;;;;5047206;28;20392;-42
2023/07/15 01:51:36;;;;;;;3.35;1.40;;;23.50;90.90;;;;;;5046717;28;20029;-42
2023/07/15 01:54:02;;;;;;;1.45;1.27;;;23.50;90.90;;;;;;5047319;28;20048;-42
2023/07/15 01:56:28;;;;;;;1.73;1.15;;;23.40;90.90;;;;;;5047027;28;20028;-43
2023/07/15 01:58:53;;;;;;;1.48;1.30;;;23.40;90.90;;;;;;5047997;28;20025;-42
2023/07/15 02:01:25;;;;;;;1.60;1.23;;;23.40;91.00;;;;;;5047377;28;20543;-42
2023/07/15 02:03:51;;;;;;;1.80;1.23;;;23.30;91.00;;;;;;5025548;28;20041;-42
2023/07/15 02:06:17;;;;;;;1.88;1.45;;;23.20;91.00;;;;;;5041382;28;20028;-42
2023/07/15 02:08:42;;;;;;;1.63;1.30;;;23.20;91.10;;;;;;5046798;28;20048;-42
2023/07/15 02:11:11;;;;;;;1.45;1.23;;;23.10;91.10;;;;;;5046290;28;20047;-43
2023/07/15 02:13:36;;;;;;;1.80;1.27;;;23.00;91.10;;;;;;5046912;28;20226;-42
2023/07/15 02:16:02;;;;;;;2.22;1.35;;;23.00;91.00;;;;;;5046057;28;20079;-42
2023/07/15 02:18:30;;;;;;;2.95;1.35;;;22.90;91.00;;;;;;5047208;28;20017;-43
2023/07/15 02:20:56;;;;;;;1.50;1.30;;;22.90;91.00;;;;;;5047433;28;20140;-42
2023/07/15 02:23:22;;;;;;;1.88;1.50;;;22.90;91.00;;;;;;5046752;28;20488;-42
2023/07/15 02:25:48;;;;;;;1.90;1.40;;;22.80;91.10;;;;;;5046754;28;20441;-42
2023/07/15 02:28:13;;;;;;;1.60;1.30;;;22.70;91.10;;;;;;5047008;28;20116;-42
2023/07/15 02:30:39;;;;;;;4.72;1.58;;;22.70;91.10;;;;;;5045659;28;20071;-41
2023/07/15 02:33:06;;;;;;;4.50;1.27;;;22.70;91.40;;;;;;5046490;28;20774;-43
2023/07/15 02:35:33;;;;;;;2.10;1.40;;;22.60;91.20;;;;;;5047091;28;20104;-42
2023/07/15 02:37:58;;;;;;;4.38;1.30;;;22.50;91.10;;;;;;5045915;28;20095;-42
2023/07/15 02:40:25;;;;;;;2.70;1.65;;;22.50;91.20;;;;;;5046910;28;20029;-42
2023/07/15 02:42:51;;;;;;;1.50;1.30;;;22.50;91.20;;;;;;5046187;28;20029;-42
2023/07/15 02:45:17;;;;;;;1.73;1.40;;;22.40;91.20;;;;;;5045836;28;20057;-42
2023/07/15 02:47:52;;;;;;;1.70;1.30;;;22.40;91.30;;;;;;5045387;28;20029;-41
2023/07/15 02:50:18;;;;;;;1.30;1.20;;;22.30;91.40;;;;;;5046569;28;20032;-42
2023/07/15 02:52:48;;;;;;;2.40;1.27;;;22.30;91.40;;;;;;5045555;28;20017;-42
2023/07/15 02:55:14;;;;;;;2.80;1.15;;;22.30;91.50;;;;;;5046291;28;20411;-42
2023/07/15 02:57:40;;;;;;;1.25;1.15;;;22.30;91.50;;;;;;5046774;28;20078;-42
2023/07/15 03:00:15;;;;;;;1.77;1.10;;;22.20;91.60;;;;;;5045871;28;20025;-42
2023/07/15 03:02:47;;;;;;;2.00;1.30;;;22.20;91.70;;;;;;5046566;28;20025;-42
2023/07/15 03:05:13;;;;;;;;;;;22.10;91.80;;;;;;5046819;28;20021;-42
2023/07/15 03:07:45;;;;;;;2.28;1.40;;;22.10;92.00;;;;;;5045052;28;20425;-42
2023/07/15 03:10:15;;;;;;;1.85;1.20;;;22.00;92.00;;;;;;5045839;28;20416;-41
2023/07/15 03:12:42;;;;;;;1.65;1.40;;;22.00;92.10;;;;;;5045096;28;20528;-42
2023/07/15 03:15:09;;;;;;;1.67;1.25;;;22.00;92.30;;;;;;5045859;28;20056;-42
2023/07/15 03:17:35;;;;;;;1.70;1.20;;;21.90;92.50;;;;;;5045578;28;20025;-42
2023/07/15 03:20:13;;;;;;;1.58;1.30;;;21.90;93.00;;;;;;5044952;28;20099;-41
2023/07/15 03:22:39;;;;;;;1.48;1.30;;;21.90;92.90;;;;;;5045806;28;20358;-42
2023/07/15 03:25:06;;;;;;;1.90;1.40;;;21.80;92.90;;;;;;5045556;28;20020;-41
2023/07/15 03:27:38;;;;;;;2.25;1.50;;;21.80;93.00;;;;;;5045004;28;20511;-42
2023/07/15 03:30:08;;;;;;;2.03;1.10;;;21.80;93.20;;;;;;5042732;28;20397;-42
2023/07/15 03:32:38;;;;;;;1.85;1.60;;;21.80;93.20;;;;;;5045123;28;20051;-42
2023/07/15 03:35:11;;;;;;;1.35;1.25;;;21.70;93.10;;;;;;5044676;28;20036;-42
2023/07/15 03:37:41;;;;;;;2.22;1.60;;;21.80;93.20;;;;;;5045710;28;20396;-42
2023/07/15 03:40:08;;;;;;;2.95;1.70;;;21.70;93.40;;;;;;5045179;28;20056;-42
2023/07/15 03:42:42;;;;;;;1.40;1.30;;;21.70;93.50;;;;;;5045108;28;20052;-41
2023/07/15 03:45:09;;;;;;;1.73;1.45;;;21.70;93.80;;;;;;5045213;28;20013;-42
2023/07/15 03:47:35;;;;;;;2.45;1.40;;;21.70;93.90;;;;;;5044737;28;20035;-42
2023/07/15 03:50:02;;;;;;;3.42;1.40;;;21.60;94.10;;;;;;5044987;28;20068;-42
2023/07/15 03:52:28;;;;;;;2.65;1.35;;;21.60;94.30;;;;;;5026428;28;20088;-42
2023/07/15 03:54:54;;;;;;;1.80;1.33;;;21.60;94.60;;;;;;5038813;28;20041;-41
2023/07/15 03:57:20;;;;;;;1.88;1.60;;;21.60;94.70;;;;;;5044819;28;20112;-41
2023/07/15 03:59:45;;;;;;;3.03;1.50;;;21.60;95.10;;;;;;5044291;28;20459;-41
2023/07/15 04:02:11;;;;;;;3.78;1.92;;;21.50;95.00;;;;;;5044774;28;20115;-41
2023/07/15 04:04:36;;;;;;;2.50;1.45;;;21.50;95.10;;;;;;5044918;28;20036;-41
2023/07/15 04:07:02;;;;;;;2.28;1.77;;;21.40;95.30;;;;;;5044909;28;20029;-40
2023/07/15 04:09:28;;;;;;;2.83;1.60;;;21.40;95.40;;;;;;5045053;28;20392;-41
2023/07/15 04:11:57;;;;;;;2.17;1.30;;;21.40;95.50;;;;;;5045412;28;20014;-42
2023/07/15 04:14:22;;;;;;;1.67;1.48;;;21.40;95.70;;;;;;5044602;28;20021;-41
2023/07/15 04:16:48;;;;;;;1.95;1.40;;;21.40;95.80;;;;;;5044597;28;20033;-41
2023/07/15 04:19:14;;;;;;;2.80;1.48;;;21.40;95.90;;;;;;5045037;28;20072;-41
2023/07/15 04:21:42;;;;;;;4.32;1.60;;;21.40;96.00;;;;;;5044391;28;20036;-42
2023/07/15 04:24:08;;;;;;;2.05;1.50;;;21.30;96.10;;;;;;5044609;28;20021;-41
2023/07/15 04:26:33;;;;;;;1.50;1.40;;;21.30;96.20;;;;;;5044621;28;20028;-41
2023/07/15 04:28:59;;;;;;;1.70;1.52;;;21.30;96.20;;;;;;5045261;28;20037;-42
2023/07/15 04:31:24;;;;;;;2.00;1.58;;;21.20;96.30;;;;;;5044321;28;20025;-41
2023/07/15 04:33:51;;;;;;;1.90;1.60;;;21.20;96.40;;;;;;5044672;28;20025;-42
2023/07/15 04:36:21;;;;;;;2.00;1.80;;;21.20;96.50;;;;;;5045080;28;20021;-40
2023/07/15 04:38:47;;;;;;;1.60;1.50;;;21.20;96.60;;;;;;5044127;28;20033;-42
2023/07/15 04:41:13;;;;;;;4.20;1.48;;;21.20;96.70;;;;;;5044007;28;20075;-43
2023/07/15 04:43:42;;;;;;;2.97;1.60;;;21.20;96.70;;;;;;5044888;28;20074;-42
2023/07/15 04:46:08;;;;;;;2.78;1.55;;;21.20;96.70;;;;;;5043841;28;20465;-42
2023/07/15 04:48:33;;;;;;;2.53;1.50;;;21.20;96.60;;;;;;5044349;28;20021;-42
2023/07/15 04:50:59;;;;;;;3.05;1.55;;;21.20;96.60;;;;;;5044360;28;20025;-42
2023/07/15 04:53:35;;;;;;;2.33;1.55;;;21.20;96.70;;;;;;5045119;28;20025;-43
2023/07/15 04:56:02;;;;;;;1.80;1.35;;;21.20;96.80;;;;;;5045097;28;20095;-42
2023/07/15 04:58:27;;;;;;;2.00;1.63;;;21.30;96.90;;;;;;5044500;28;20037;-41
2023/07/15 05:00:53;;;;;;;1.95;1.50;;;21.30;97.00;;;;;;5044881;28;20037;-42
2023/07/15 05:03:19;;;;;;;2.30;1.65;;;21.30;97.00;;;;;;5044687;28;20044;-42
2023/07/15 05:05:46;;;;;;;1.50;1.40;;;21.30;97.00;;;;;;5044413;28;20033;-42
2023/07/15 05:08:15;;;;;;;2.28;1.73;;;21.30;97.00;;;;;;5044592;28;20048;-42
2023/07/15 05:10:41;;;;;;;3.35;1.40;;;21.30;97.00;;;;;;5047158;28;20041;-42
2023/07/15 05:13:07;;;;;;;1.75;1.50;;;21.30;97.00;;;;;;5047464;28;20025;-42
2023/07/15 05:15:36;;;;;;;2.25;1.70;;;21.30;96.90;;;;;;5048450;28;20028;-42
2023/07/15 05:18:04;;;;;;;2.33;1.90;;;21.40;96.90;;;;;;5047731;28;20029;-42
2023/07/15 05:20:36;;;;;;;3.85;1.50;;;21.40;96.80;;;;;;5046260;28;20032;-42
2023/07/15 05:23:03;;;;;;;1.60;1.45;;;21.40;96.70;;;;;;5047901;28;20025;-41
2023/07/15 05:25:29;;;;;;;2.92;1.50;;;21.50;96.80;;;;;;5048011;28;20029;-42
2023/07/15 05:27:55;;;;;;;1.65;1.55;;;21.50;96.80;;;;;;5046854;28;20687;-41
2023/07/15 05:30:22;;;;;;;1.50;1.40;;;21.50;96.70;;;;;;5048139;28;20033;-41
2023/07/15 05:32:50;;;;;;;1.60;1.30;;;21.60;96.60;;;;;;5047419;28;20032;-41
2023/07/15 05:35:16;;;;;;;1.90;1.67;;;21.60;96.60;;;;;;5047259;28;20022;-42
2023/07/15 05:37:42;;;;;;;1.98;1.77;;;21.60;96.40;;;;;;5047939;28;20028;-42
2023/07/15 05:40:14;;;;;;;1.80;1.40;;;21.70;96.40;;;;;;5046911;28;20093;-42
2023/07/15 05:42:41;;;;;;;2.03;1.50;;;21.70;96.30;;;;;;5047854;28;20465;-42
2023/07/15 05:45:11;;;;;;;2.22;1.35;;;21.80;96.30;;;;;;5047749;28;20044;-42
2023/07/15 05:47:40;;;;;;;2.10;1.60;;;21.80;96.30;;;;;;5046571;28;20109;-42
2023/07/15 05:50:09;;;;;;;1.90;1.58;;;21.90;96.30;;;;;;5036417;28;20556;-42
2023/07/15 05:52:35;;;;;;;3.47;1.50;;;21.90;96.20;;;;;;5047383;28;20071;-41
2023/07/15 05:55:02;;;;;;;4.13;1.30;;;22.00;96.20;;;;;;5046686;28;20036;-42
2023/07/15 05:57:27;;;;;;;1.75;1.50;;;22.00;96.20;;;;;;5047682;28;20116;-41
2023/07/15 05:59:53;;;;;;;2.28;1.38;;;22.10;96.30;;;;;;5046926;28;20024;-41
2023/07/15 06:02:19;;;;;;;1.48;1.27;;;22.10;96.30;;;;;;5046982;28;20108;-41
2023/07/15 06:04:44;;;;;;;1.98;1.50;;;22.10;96.30;;;;;;5047574;28;20032;-42
2023/07/15 06:07:10;;;;;;;6.57;1.52;;;22.10;96.30;;;;;;5047525;28;20025;-41
2023/07/15 06:09:36;;;;;;;1.35;1.25;;;22.10;96.30;;;;;;5046359;28;20048;-41
2023/07/15 06:12:02;;;;;;;2.65;1.40;;;22.20;96.40;;;;;;5046445;28;20594;-41
2023/07/15 06:14:34;;;;;;;1.50;1.40;;;22.20;96.40;;;;;;5046849;28;20029;-42
2023/07/15 06:17:00;;;;;;;1.73;1.55;;;22.30;96.50;;;;;;5046446;28;20036;-41
2023/07/15 06:19:25;;;;;;;2.42;1.50;;;22.20;96.50;;;;;;5046774;28;20032;-41
2023/07/15 06:21:51;;;;;;;2.08;1.58;;;22.30;96.50;;;;;;5046393;28;20024;-41
2023/07/15 06:24:17;;;;;;;2.72;1.67;;;22.40;96.60;;;;;;5046115;28;20025;-41
2023/07/15 06:26:43;;;;;;;2.20;1.50;;;22.40;96.60;;;;;;5047529;28;20027;-42
2023/07/15 06:29:09;;;;;;;2.35;1.58;;;22.50;96.50;;;;;;5046986;28;20119;-42
2023/07/15 06:31:34;;;;;;;2.20;1.55;;;22.50;96.50;;;;;;5046126;28;20017;-42
2023/07/15 06:34:00;;;;;;;1.73;1.60;;;22.60;96.50;;;;;;5046768;28;20392;-42
2023/07/15 06:36:25;;;;;;;2.85;1.52;;;22.70;96.50;;;;;;5046186;28;20570;-42
2023/07/15 06:38:51;;;;;;;3.95;1.70;;;22.70;96.40;;;;;;5046858;28;20033;-41
2023/07/15 06:41:16;;;;;;;2.75;1.60;;;22.80;96.40;;;;;;5046418;28;20025;-41
2023/07/15 06:43:42;;;;;;;2.85;1.75;;;22.80;96.40;;;;;;5045677;28;20477;-41
2023/07/15 06:46:08;;;;;;;1.48;1.27;;;22.90;96.40;;;;;;5045983;28;20025;-42
2023/07/15 06:48:33;;;;;;;1.95;1.67;;;22.90;96.40;;;;;;5046567;28;20039;-42
2023/07/15 06:50:59;;;;;;;2.22;1.42;;;23.00;96.60;;;;;;5045536;28;20660;-42
2023/07/15 06:53:24;;;;;;;1.70;1.40;;;23.00;96.60;;;;;;5046955;28;20017;-42
2023/07/15 06:55:51;;;;;;;2.97;1.88;;;23.00;96.60;;;;;;5046368;28;20347;-41
2023/07/15 06:58:20;;;;;;;2.35;1.60;;;23.00;96.80;;;;;;5045827;28;20473;-42
2023/07/15 07:00:55;;;;;;;1.83;1.60;;;23.10;97.10;;;;;;5045883;28;20021;-41
2023/07/15 07:03:20;;;;;;;1.38;1.27;;;23.00;97.10;;;;;;5046698;28;20036;-41
2023/07/15 07:05:49;;;;;;;1.63;1.45;;;23.10;97.40;;;;;;5045212;28;20020;-42
2023/07/15 07:08:14;;;;;;;1.60;1.42;;;23.10;97.70;;;;;;5045478;28;20049;-43
2023/07/15 07:10:40;;;;;;;1.35;1.25;;;23.20;97.80;;;;;;5045903;28;20553;-44
2023/07/15 07:13:05;;;;;;;1.92;1.52;;;23.20;98.00;;;;;;5045163;28;20028;-40
2023/07/15 07:15:31;;;;;;;2.75;1.30;;;23.20;98.20;;;;;;5045808;28;20021;-41
2023/07/15 07:17:57;;;;;;;2.90;1.63;;;23.20;98.30;;;;;;5046400;28;20655;-43
2023/07/15 07:20:23;;;;;;;2.63;1.60;;;23.30;98.60;;;;;;5045032;28;20460;-42
2023/07/15 07:22:48;;;;;;;1.63;1.45;;;23.40;98.70;;;;;;5045458;28;20029;-42
2023/07/15 07:25:14;;;;;;;1.20;1.10;;;23.50;98.70;;;;;;5045798;28;20032;-43
2023/07/15 07:27:39;;;;;;;1.48;1.10;;;23.50;98.80;;;;;;5044770;28;20029;-42
2023/07/15 07:30:08;;;;;;;1.52;1.30;;;23.50;98.70;;;;;;5045893;28;20037;-42
2023/07/15 07:32:36;;;;;;;1.38;1.10;;;23.60;99.00;;;;;;5045062;28;20100;-42
2023/07/15 07:35:02;;;;;;;1.55;1.42;;;23.60;98.90;;;;;;5045459;28;20477;-42
2023/07/15 07:37:28;;;;;;;1.63;1.20;;;23.70;98.90;;;;;;5045356;28;20059;-42
2023/07/15 07:39:53;;;;;;;1.10;1.00;;;23.70;98.80;;;;;;5045196;28;20112;-42
2023/07/15 07:42:20;;;;;;;1.50;1.40;;;23.80;99.10;;;;;;5045461;28;20017;-42
2023/07/15 07:44:45;;;;;;;1.27;1.00;;;23.80;98.80;;;;;;5045595;28;20029;-42
2023/07/15 07:47:13;;;;;;;1.35;1.05;;;23.90;98.90;;;;;;5045341;28;20364;-42
2023/07/15 07:49:39;;;;;;;1.10;1.00;;;23.90;98.60;;;;;;5045158;28;20048;-42
2023/07/15 07:52:04;;;;;;;1.48;1.10;;;24.00;98.80;;;;;;5045377;28;20033;-42
2023/07/15 07:54:30;;;;;;;1.00;0.90;;;24.10;98.90;;;;;;5045073;28;20055;-42
2023/07/15 07:56:56;;;;;;;1.67;1.40;;;24.10;98.80;;;;;;5045085;28;20052;-42
2023/07/15 07:59:21;;;;;;;2.05;1.60;;;24.10;98.70;;;;;;5045074;28;20067;-42
2023/07/15 08:01:47;;;;;;;2.70;1.50;;;24.20;98.70;;;;;;5044526;28;21579;-42
2023/07/15 08:04:12;;;;;;;2.17;1.70;;;24.40;98.40;;;;;;5044909;28;20035;-42
2023/07/15 08:06:41;;;;;;;1.63;1.30;;;24.60;98.20;;;;;;5044939;28;20036;-42
2023/07/15 08:09:06;;;;;;;2.35;1.30;;;24.70;98.20;;;;;;5044165;28;20566;-42
2023/07/15 08:11:32;;;;;;;1.65;1.20;;;24.90;97.60;;;;;;5045270;28;20020;-42
2023/07/15 08:13:57;;;;;;;1.30;1.20;;;25.00;97.40;;;;;;5044593;28;20099;-42
2023/07/15 08:16:50;;;;;;;2.97;1.25;;;25.10;97.30;;;;;;5044867;28;20032;-42
2023/07/15 08:19:16;;;;;;;;;;;25.20;97.10;;;;;;5045521;28;20036;-42
2023/07/15 08:21:42;;;;;;;2.70;1.33;;;25.20;97.10;;;;;;5045607;28;19908;-42
2023/07/15 08:24:07;;;;;;;3.20;1.75;;;25.30;97.00;;;;;;5044445;28;20469;-42
2023/07/15 08:26:33;;;;;;;2.20;1.70;;;25.30;96.90;;;;;;5044665;28;20027;-42
2023/07/15 08:29:00;;;;;;;2.85;1.60;;;25.30;96.80;;;;;;5043804;28;20041;-42
2023/07/15 08:31:26;;;;;;;1.88;1.35;;;25.40;96.80;;;;;;5044980;28;20527;-43
2023/07/15 08:33:51;;;;;;;1.20;1.10;;;25.40;96.70;;;;;;5044717;28;20029;-43
2023/07/15 08:36:17;;;;;;;4.25;1.63;;;25.30;96.80;;;;;;5043999;28;20147;-43
2023/07/15 08:38:43;;;;;;;1.20;1.10;;;25.30;96.90;;;;;;5044786;28;20102;-43
2023/07/15 08:41:10;;;;;;;1.13;1.02;;;25.30;97.10;;;;;;5045319;28;20480;-43
2023/07/15 08:43:36;;;;;;;1.38;0.70;;;25.40;97.20;;;;;;5044473;28;20040;-43
2023/07/15 08:46:32;;;;;;;1.50;1.10;;;25.40;97.20;;;;;;5048663;28;20021;-43
2023/07/15 08:48:59;;;;;;;3.40;1.15;;;25.50;97.20;;;;;;5048474;28;20127;-42
2023/07/15 08:51:37;;;;;;;1.13;0.85;;;25.50;97.60;;;;;;5048625;28;20078;-43
2023/07/15 08:54:04;;;;;;;0.75;0.73;;;25.60;97.40;;;;;;5049128;28;20036;-43
2023/07/15 08:56:34;;;;;;;1.85;0.95;;;25.70;97.40;;;;;;5048949;28;20021;-44
2023/07/15 08:59:06;;;;;;;1.13;0.80;;;25.70;97.30;;;;;;5047829;28;20021;-43
2023/07/15 09:01:32;;;;;;;0.63;0.55;;;25.80;97.20;;;;;;5038297;28;20056;-44
2023/07/15 09:03:58;;;;;;;1.23;0.70;;;25.90;97.20;;;;;;5047664;28;20029;-43
2023/07/15 09:06:24;;;;;;;1.30;0.90;;;25.90;97.20;;;;;;5048624;28;20048;-43
2023/07/15 09:08:50;;;;;;;1.05;0.70;;;25.90;97.20;;;;;;5048058;28;20144;-41
2023/07/15 09:11:16;;;;;;;1.85;0.60;;;26.00;97.20;;;;;;5047874;28;20079;-42
2023/07/15 09:13:43;;;;;;;0.63;0.55;;;26.00;97.10;;;;;;5048685;28;20027;-42
2023/07/15 09:16:09;;;;;;;1.38;0.70;;;25.90;97.00;;;;;;5048181;28;20017;-42
2023/07/15 09:18:42;;;;;;;3.10;0.90;;;25.90;97.00;;;;;;5047849;28;20032;-42
2023/07/15 09:21:12;;;;;;;0.82;0.80;;;25.90;97.00;;;;;;5047746;28;20039;-42
2023/07/15 09:23:40;;;;;;;1.55;0.80;;;25.90;96.80;;;;;;5047923;28;20523;-43
2023/07/15 09:26:09;;;;;;;1.25;0.80;;;25.90;96.70;;;;;;5047322;28;20051;-40
2023/07/15 09:28:41;;;;;;;1.48;1.00;;;25.90;96.50;;;;;;5047848;28;20029;-41
2023/07/15 09:31:06;;;;;;;0.85;0.70;;;25.90;96.40;;;;;;5047834;28;20032;-42
2023/07/15 09:33:40;;;;;;;0.73;0.73;;;26.00;96.30;;;;;;5047479;28;20678;-42
2023/07/15 09:36:06;;;;;;;1.08;0.80;;;26.10;96.30;;;;;;5047900;28;20025;-41
2023/07/15 09:38:38;;;;;;;2.22;0.93;;;26.10;96.20;;;;;;5047681;28;20037;-42
2023/07/15 09:41:18;;;;;;;1.45;1.10;;;26.00;96.10;;;;;;5047046;28;20045;-42
2023/07/15 09:43:48;;;;;;;1.38;1.02;;;25.80;95.90;;;;;;5047892;28;20705;-42
2023/07/15 09:46:18;;;;;;;1.25;0.90;;;25.70;96.10;;;;;;5047123;28;20036;-42
2023/07/15 09:48:51;;;;;;;1.30;0.80;;;25.50;96.20;;;;;;5047885;28;20120;-43
2023/07/15 09:51:18;;;;;;;1.42;0.90;;;25.50;96.30;;;;;;5047405;28;20028;-41
2023/07/15 09:53:54;;;;;;;1.05;1.02;;;25.50;96.40;;;;;;5047309;28;20662;-41
2023/07/15 09:56:46;;;;;;;3.03;1.05;;;25.50;96.80;;;;;;5046324;28;20372;-41
2023/07/15 09:59:20;;;;;;;4.03;1.67;;;25.60;96.60;;;;;;5047580;28;20063;-42
2023/07/15 10:01:53;;;;;;;1.50;1.35;;;25.70;96.60;;;;;;5046649;28;20039;-42
2023/07/15 10:04:54;;;;;;;1.63;1.20;;;25.80;96.60;;;;;;5047999;28;20025;-42
2023/07/15 10:07:20;;;;;;;1.20;1.10;;;26.00;96.60;;;;;;5046160;28;20611;-42
2023/07/15 10:09:46;;;;;;;1.77;1.20;;;26.10;96.50;;;;;;5047213;28;20053;-42
2023/07/15 10:12:14;;;;;;;1.58;1.23;;;26.10;96.20;;;;;;5047143;28;20480;-42
2023/07/15 10:14:41;;;;;;;3.88;1.20;;;26.10;96.10;;;;;;5046351;28;20025;-42
2023/07/15 10:17:11;;;;;;;2.38;1.20;;;26.00;96.00;;;;;;5046867;28;20020;-42
2023/07/15 10:19:49;;;;;;;2.13;1.10;;;25.80;96.00;;;;;;5047042;28;20028;-43
2023/07/15 10:22:32;;;;;;;1.45;1.23;;;25.70;96.20;;;;;;5046434;28;20110;-42
2023/07/15 10:24:57;;;;;;;;;;;25.50;96.30;;;;;;5047753;28;20029;-42
2023/07/15 10:27:27;;;;;;;2.08;1.45;;;25.40;96.40;;;;;;5047030;28;20296;-42
2023/07/15 10:30:31;;;;;;;1.35;1.20;;;25.40;96.50;;;;;;5045831;28;20076;-43
2023/07/15 10:33:08;;;;;;;2.85;1.30;;;25.40;96.60;;;;;;5046698;28;20057;-43
2023/07/15 10:35:54;;;;;;;1.83;1.20;;;25.40;96.70;;;;;;5046570;28;20036;-43
2023/07/15 10:38:23;;;;;;;2.35;1.30;;;25.30;96.80;;;;;;5046200;28;20037;-42
2023/07/15 10:40:49;;;;;;;1.55;1.17;;;25.40;96.80;;;;;;5046376;28;20060;-43
2023/07/15 10:43:25;;;;;;;2.13;1.13;;;25.40;96.70;;;;;;5046329;28;20043;-42
2023/07/15 10:45:52;;;;;;;2.05;1.35;;;25.40;96.50;;;;;;5046723;28;20044;-42
2023/07/15 10:48:22;;;;;;;2.72;1.25;;;25.40;96.50;;;;;;5046486;28;20174;-42
2023/07/15 10:50:54;;;;;;;1.48;1.38;;;25.40;96.40;;;;;;5045690;28;20248;-42
2023/07/15 10:53:26;;;;;;;2.10;1.60;;;25.40;96.30;;;;;;5046008;28;20063;-42
2023/07/15 10:55:55;;;;;;;1.50;1.23;;;25.50;96.40;;;;;;5046436;28;20107;-42
2023/07/15 10:58:24;;;;;;;3.97;1.50;;;25.50;96.50;;;;;;5045963;28;20210;-42
2023/07/15 11:00:50;;;;;;;1.92;1.70;;;25.40;96.70;;;;;;5046715;28;20096;-42
2023/07/15 11:03:17;;;;;;;2.42;1.52;;;25.30;97.20;;;;;;5046268;28;20195;-42
2023/07/15 11:05:43;;;;;;;2.38;1.40;;;25.40;97.70;;;;;;5045936;28;20029;-41
2023/07/15 11:08:09;;;;;;;2.58;1.25;;;25.40;98.00;;;;;;5046222;28;20045;-42
2023/07/15 11:10:35;;;;;;;4.10;1.60;;;25.40;98.10;;;;;;5045095;28;20056;-42
2023/07/15 11:13:17;;;;;;;1.98;1.30;;;25.40;98.30;;;;;;5046379;28;20142;-42
2023/07/15 11:15:46;;;;;;;;;;;25.50;98.60;;;;;;5044765;28;20053;-42
2023/07/15 11:18:19;;;;;;;2.72;1.90;;;25.50;98.70;;;;;;5045188;28;20490;-42
2023/07/15 11:20:50;;;;;;;1.90;1.30;;;25.70;98.60;;;;;;5043169;28;20021;-42
2023/07/15 11:23:16;;;;;;;1.77;1.30;;;25.70;98.50;;;;;;5045846;28;20075;-42
2023/07/15 11:25:42;;;;;;;1.52;1.40;;;25.70;98.30;;;;;;5043784;28;20028;-42
2023/07/15 11:28:09;;;;;;;1.52;1.10;;;25.80;97.80;;;;;;5045582;28;20029;-42
2023/07/15 11:30:49;;;;;;;1.75;1.20;;;25.80;97.70;;;;;;5045672;28;20037;-42
2023/07/15 11:33:16;;;;;;;2.70;1.38;;;25.80;97.50;;;;;;5045118;28;20108;-42
2023/07/15 11:35:46;;;;;;;2.35;1.55;;;25.90;97.50;;;;;;5045143;28;20024;-42
2023/07/15 11:38:15;;;;;;;1.27;1.10;;;25.80;96.90;;;;;;5045611;28;20057;-43
2023/07/15 11:40:58;;;;;;;1.98;1.20;;;25.70;96.90;;;;;;5044543;28;20399;-43
2023/07/15 11:43:27;;;;;;;1.98;1.23;;;25.60;96.80;;;;;;5046008;28;20029;-43
2023/07/15 11:45:57;;;;;;;2.15;1.33;;;25.50;96.70;;;;;;5044306;28;20032;-42
2023/07/15 11:48:24;;;;;;;1.98;1.50;;;25.60;96.50;;;;;;5025634;28;20396;-42
2023/07/15 11:50:51;;;;;;;2.13;1.90;;;25.60;96.30;;;;;;5040285;28;20116;-42
2023/07/15 11:53:33;;;;;;;1.63;1.52;;;25.70;96.30;;;;;;5044487;28;20013;-42
2023/07/15 11:56:00;;;;;;;2.58;1.27;;;25.80;96.20;;;;;;5045194;28;20021;-43
2023/07/15 11:58:44;;;;;;;3.33;1.33;;;25.80;95.90;;;;;;5045467;28;20776;-43
2023/07/15 12:01:15;;;;;;;1.38;1.27;;;25.70;95.30;;;;;;5044884;28;20025;-41
2023/07/15 12:03:42;;;;;;;2.47;1.33;;;25.70;95.50;;;;;;5045249;28;20567;-42
2023/07/15 12:06:22;;;;;;;1.30;1.20;;;25.70;95.30;;;;;;5044577;28;20476;-41
2023/07/15 12:09:09;;;;;;;2.78;1.27;;;25.70;95.20;;;;;;5044666;28;20053;-42
2023/07/15 12:11:35;;;;;;;1.40;1.10;;;25.80;95.30;;;;;;5045065;28;20028;-42
2023/07/15 12:14:02;;;;;;;1.65;1.20;;;25.90;95.10;;;;;;5044340;28;20027;-41
2023/07/15 12:16:29;;;;;;;1.42;1.17;;;25.90;95.00;;;;;;5045335;28;20095;-41
2023/07/15 12:18:56;;;;;;;1.73;1.38;;;26.00;95.00;;;;;;5044368;28;20036;-41
2023/07/15 12:21:22;;;;;;;3.00;1.55;;;26.00;94.80;;;;;;5043840;28;20370;-42
2023/07/15 12:23:50;;;;;;;2.90;1.42;;;26.00;94.40;;;;;;5044800;28;20040;-42
2023/07/15 12:26:19;;;;;;;1.70;1.23;;;26.00;94.40;;;;;;5044949;28;20029;-42
2023/07/15 12:28:45;;;;;;;2.13;1.40;;;26.10;94.40;;;;;;5043765;28;20429;-42
2023/07/15 12:31:13;;;;;;;1.63;1.10;;;26.20;93.90;;;;;;5044745;28;20081;-43
2023/07/15 12:33:38;;;;;;;2.30;1.52;;;26.20;93.70;;;;;;5044661;28;20033;-42
2023/07/15 12:36:12;;;;;;;1.70;1.60;;;26.30;93.40;;;;;;5043771;28;20036;-42
2023/07/15 12:38:38;;;;;;;1.73;1.40;;;26.30;93.00;;;;;;5044833;28;20548;-42
2023/07/15 12:41:05;;;;;;;1.60;1.10;;;26.30;92.90;;;;;;5044616;28;20065;-42
2023/07/15 12:43:31;;;;;;;2.47;1.25;;;26.40;93.10;;;;;;5044103;28;20095;-43
2023/07/15 12:45:57;;;;;;;1.40;1.20;;;26.40;92.80;;;;;;5044840;28;20021;-42
2023/07/15 12:48:23;;;;;;;1.33;1.23;;;26.40;92.80;;;;;;5044677;28;20036;-42
2023/07/15 12:50:49;;;;;;;1.50;1.30;;;26.40;92.60;;;;;;5044662;28;20037;-42
2023/07/15 12:53:15;;;;;;;1.88;1.30;;;26.40;92.70;;;;;;5044101;28;20461;-42
2023/07/15 12:55:41;;;;;;;1.65;1.33;;;26.40;92.60;;;;;;5045063;28;20086;-42